createdAt,value
2022-07-31T00:00:38.178Z,19.50
2022-07-31T00:03:07.817Z,19.40
2022-07-31T00:05:38.641Z,19.40
2022-07-31T00:08:09.813Z,19.40
2022-07-31T00:10:37.961Z,19.40
2022-07-31T00:13:05.936Z,19.40
2022-07-31T00:15:33.786Z,19.40
2022-07-31T00:18:01.617Z,19.40
2022-07-31T00:20:30.791Z,19.40
2022-07-31T00:22:58.661Z,19.30
2022-07-31T00:25:26.659Z,19.30
2022-07-31T00:27:54.557Z,19.30
2022-07-31T00:30:22.383Z,19.30
2022-07-31T00:32:50.215Z,19.20
2022-07-31T00:35:20.214Z,19.20
2022-07-31T00:37:52.205Z,19.20
2022-07-31T00:40:20.177Z,19.30
2022-07-31T00:42:48.020Z,19.20
2022-07-31T00:45:16.063Z,19.10
2022-07-31T00:47:44.445Z,19.00
2022-07-31T00:50:12.807Z,18.90
2022-07-31T00:52:40.805Z,18.90
2022-07-31T00:55:11.041Z,18.80
2022-07-31T00:57:38.897Z,18.90
2022-07-31T01:00:07.890Z,18.80
2022-07-31T01:02:35.754Z,18.80
2022-07-31T01:05:03.669Z,18.90
2022-07-31T01:07:31.626Z,18.80
2022-07-31T01:10:01.411Z,18.90
2022-07-31T01:12:35.880Z,18.80
2022-07-31T01:15:08.639Z,18.80
2022-07-31T01:17:38.184Z,18.70
2022-07-31T01:20:08.684Z,18.70
2022-07-31T01:22:57.129Z,18.60
2022-07-31T01:25:38.837Z,18.50
2022-07-31T01:28:29.637Z,18.40
2022-07-31T01:31:25.512Z,18.40
2022-07-31T01:34:03.725Z,18.40
2022-07-31T01:36:35.066Z,18.40
2022-07-31T01:39:04.409Z,18.30
2022-07-31T01:41:37.776Z,18.30
2022-07-31T01:44:06.561Z,18.40
2022-07-31T01:46:41.479Z,18.40
2022-07-31T01:49:10.884Z,18.20
2022-07-31T01:51:40.347Z,18.10
2022-07-31T01:54:09.729Z,18.00
2022-07-31T01:56:39.008Z,18.00
2022-07-31T01:59:20.071Z,18.00
2022-07-31T02:01:50.892Z,17.90
2022-07-31T02:04:21.035Z,17.80
2022-07-31T02:06:49.958Z,17.80
2022-07-31T02:09:20.332Z,17.70
2022-07-31T02:11:54.461Z,17.70
2022-07-31T02:14:23.818Z,17.80
2022-07-31T02:16:53.915Z,17.80
2022-07-31T02:19:23.511Z,18.00
2022-07-31T02:21:51.460Z,17.90
2022-07-31T02:24:19.769Z,17.90
2022-07-31T02:26:48.634Z,17.80
2022-07-31T02:29:19.656Z,17.80
2022-07-31T02:32:03.335Z,17.90
2022-07-31T02:34:35.371Z,18.00
2022-07-31T02:37:05.165Z,17.90
2022-07-31T02:39:35.464Z,17.90
2022-07-31T02:42:04.177Z,17.90
2022-07-31T02:44:34.650Z,17.90
2022-07-31T02:47:05.193Z,17.80
2022-07-31T02:49:35.032Z,17.70
2022-07-31T02:52:04.647Z,17.70
2022-07-31T02:54:33.095Z,17.70
2022-07-31T02:57:03.100Z,17.70
2022-07-31T02:59:30.953Z,17.70
2022-07-31T03:01:58.875Z,17.80
2022-07-31T03:04:26.698Z,17.80
2022-07-31T03:06:55.883Z,17.90
2022-07-31T03:09:23.707Z,17.70
2022-07-31T03:11:52.094Z,17.60
2022-07-31T03:14:20.141Z,17.50
2022-07-31T03:16:50.100Z,17.40
2022-07-31T03:19:18.633Z,17.40
2022-07-31T03:21:46.755Z,17.30
2022-07-31T03:24:16.388Z,17.50
2022-07-31T03:26:44.285Z,17.60
2022-07-31T03:29:41.839Z,17.70
2022-07-31T03:32:01.611Z,17.80
2022-07-31T03:34:29.712Z,17.70
2022-07-31T03:36:57.533Z,17.60
2022-07-31T03:39:26.887Z,17.60
2022-07-31T03:41:57.676Z,17.50
2022-07-31T03:44:26.830Z,17.50
2022-07-31T03:46:55.569Z,17.40
2022-07-31T03:49:24.879Z,17.30
2022-07-31T03:51:53.664Z,17.40
2022-07-31T03:54:21.630Z,17.40
2022-07-31T03:56:53.163Z,17.40
2022-07-31T03:59:21.951Z,17.40
2022-07-31T04:01:57.234Z,17.50
2022-07-31T04:04:26.709Z,17.50
2022-07-31T04:06:54.573Z,17.60
2022-07-31T04:09:22.472Z,17.50
2022-07-31T04:11:51.636Z,17.40
2022-07-31T04:14:19.484Z,17.40
2022-07-31T04:16:47.368Z,17.30
2022-07-31T04:19:15.225Z,17.40
2022-07-31T04:21:43.126Z,17.40
2022-07-31T04:24:11.567Z,17.30
2022-07-31T04:26:39.440Z,17.30
2022-07-31T04:29:08.633Z,17.30
2022-07-31T04:31:36.487Z,17.20
2022-07-31T04:34:04.333Z,17.30
2022-07-31T04:36:32.421Z,17.30
2022-07-31T04:39:00.503Z,17.30
2022-07-31T04:41:28.922Z,17.30
2022-07-31T04:43:58.226Z,17.30
2022-07-31T04:46:27.702Z,17.40
2022-07-31T04:48:55.661Z,17.40
2022-07-31T04:51:24.936Z,17.40
2022-07-31T04:53:52.773Z,17.50
2022-07-31T04:56:37.578Z,17.40
2022-07-31T04:59:10.399Z,17.40
2022-07-31T05:01:40.340Z,17.50
2022-07-31T05:04:09.566Z,17.60
2022-07-31T05:06:39.561Z,17.60
2022-07-31T05:09:10.718Z,17.60
2022-07-31T05:11:42.374Z,17.50
2022-07-31T05:14:12.034Z,17.50
2022-07-31T05:16:41.202Z,17.50
2022-07-31T05:19:14.658Z,17.50
2022-07-31T05:21:53.258Z,17.50
2022-07-31T05:24:32.811Z,17.60
2022-07-31T05:27:01.873Z,17.70
2022-07-31T05:29:29.839Z,17.90
2022-07-31T05:31:59.739Z,18.00
2022-07-31T05:34:29.256Z,18.10
2022-07-31T05:36:58.355Z,18.10
2022-07-31T05:39:26.559Z,18.20
2022-07-31T05:41:54.400Z,18.30
2022-07-31T05:44:22.241Z,18.40
2022-07-31T05:49:18.226Z,18.60
2022-07-31T05:51:47.159Z,18.60
2022-07-31T05:54:15.498Z,18.70
2022-07-31T05:56:43.338Z,18.80
2022-07-31T05:59:11.189Z,18.90
2022-07-31T06:01:39.092Z,18.90
2022-07-31T06:04:06.997Z,19.00
2022-07-31T06:06:36.173Z,19.10
2022-07-31T06:09:05.050Z,19.20
2022-07-31T06:11:33.317Z,19.30
2022-07-31T06:14:01.149Z,19.30
2022-07-31T06:16:28.996Z,19.50
2022-07-31T06:18:56.784Z,19.50
2022-07-31T06:21:28.766Z,19.70
2022-07-31T06:23:59.633Z,19.70
2022-07-31T06:26:27.737Z,19.90
2022-07-31T06:28:55.646Z,20.00
2022-07-31T06:31:24.231Z,20.10
2022-07-31T06:33:52.722Z,20.20
2022-07-31T06:36:20.843Z,20.20
2022-07-31T06:38:48.696Z,20.30
2022-07-31T06:41:31.828Z,20.40
2022-07-31T06:43:59.635Z,20.40
2022-07-31T06:46:27.953Z,20.50
2022-07-31T06:48:55.793Z,20.60
2022-07-31T06:51:32.211Z,20.70
2022-07-31T06:54:00.803Z,20.80
2022-07-31T06:56:30.151Z,20.90
2022-07-31T06:58:58.140Z,20.90
2022-07-31T07:01:26.076Z,21.00
2022-07-31T07:03:54.339Z,21.10
2022-07-31T07:06:22.366Z,21.20
2022-07-31T07:08:50.423Z,21.40
2022-07-31T07:11:19.041Z,21.60
2022-07-31T07:13:48.448Z,21.80
2022-07-31T07:16:16.832Z,21.90
2022-07-31T07:18:44.834Z,22.20
2022-07-31T07:21:12.891Z,22.40
2022-07-31T07:23:41.130Z,22.60
2022-07-31T07:26:09.135Z,22.70
2022-07-31T07:28:37.635Z,23.00
2022-07-31T07:31:07.286Z,23.10
2022-07-31T07:33:39.585Z,23.30
2022-07-31T07:36:22.498Z,23.50
2022-07-31T07:38:53.422Z,23.60
2022-07-31T07:41:22.780Z,23.70
2022-07-31T07:43:51.676Z,23.90
2022-07-31T07:46:22.383Z,24.00
2022-07-31T07:48:51.595Z,24.20
2022-07-31T07:51:20.370Z,24.30
2022-07-31T07:53:48.295Z,24.50
2022-07-31T07:56:16.396Z,24.70
2022-07-31T07:58:44.295Z,24.90
2022-07-31T08:01:12.263Z,25.10
2022-07-31T08:03:48.967Z,25.30
2022-07-31T08:06:18.430Z,25.70
2022-07-31T08:08:46.263Z,25.90
2022-07-31T08:11:17.022Z,26.20
2022-07-31T08:13:50.134Z,27.00
2022-07-31T08:16:18.804Z,27.30
2022-07-31T08:18:48.178Z,28.00
2022-07-31T08:21:16.494Z,28.60
2022-07-31T08:23:44.542Z,29.10
2022-07-31T08:26:14.017Z,29.50
2022-07-31T08:28:49.704Z,29.80
2022-07-31T08:31:19.229Z,30.00
2022-07-31T08:33:48.478Z,30.40
2022-07-31T08:36:16.370Z,30.80
2022-07-31T08:38:44.198Z,31.10
2022-07-31T08:41:14.234Z,31.30
2022-07-31T08:44:00.911Z,31.60
2022-07-31T08:46:30.996Z,31.80
2022-07-31T08:49:03.801Z,31.90
2022-07-31T08:51:34.757Z,32.10
2022-07-31T08:54:21.049Z,32.60
2022-07-31T08:56:52.329Z,32.90
2022-07-31T08:59:20.828Z,32.70
2022-07-31T09:01:48.789Z,32.60
2022-07-31T09:04:18.797Z,32.70
2022-07-31T09:06:46.688Z,32.80
2022-07-31T09:09:17.059Z,32.80
2022-07-31T09:11:48.765Z,32.80
2022-07-31T09:14:26.479Z,32.80
2022-07-31T09:16:54.691Z,33.30
2022-07-31T09:19:52.104Z,33.80
2022-07-31T09:22:21.909Z,33.90
2022-07-31T09:24:49.788Z,34.20
2022-07-31T09:27:18.295Z,34.10
2022-07-31T09:29:49.591Z,34.40
2022-07-31T09:32:20.713Z,34.70
2022-07-31T09:34:49.950Z,34.80
2022-07-31T09:37:19.242Z,34.80
2022-07-31T09:39:52.109Z,34.70
2022-07-31T09:42:21.495Z,34.90
2022-07-31T09:44:51.185Z,35.10
2022-07-31T09:47:23.010Z,35.00
2022-07-31T09:49:58.263Z,34.80
2022-07-31T09:52:27.691Z,34.30
2022-07-31T09:55:16.032Z,34.00
2022-07-31T09:57:54.034Z,33.90
2022-07-31T10:00:22.287Z,33.50
2022-07-31T10:02:52.120Z,33.30
2022-07-31T10:05:24.312Z,33.20
2022-07-31T10:07:52.743Z,33.10
2022-07-31T10:10:23.262Z,33.70
2022-07-31T10:12:55.092Z,33.90
2022-07-31T10:15:24.531Z,33.50
2022-07-31T10:17:54.924Z,33.50
2022-07-31T10:20:25.628Z,33.50
2022-07-31T10:22:57.587Z,33.30
2022-07-31T10:25:27.930Z,33.50
2022-07-31T10:27:57.174Z,33.30
2022-07-31T10:30:28.348Z,33.30
2022-07-31T10:32:56.820Z,33.10
2022-07-31T10:35:26.343Z,32.80
2022-07-31T10:38:00.086Z,32.40
2022-07-31T10:40:34.470Z,32.30
2022-07-31T10:43:18.067Z,32.30
2022-07-31T10:45:50.636Z,32.30
2022-07-31T10:48:19.259Z,32.70
2022-07-31T10:50:49.417Z,33.10
2022-07-31T10:53:18.606Z,33.80
2022-07-31T10:55:46.510Z,34.50
2022-07-31T10:58:16.651Z,34.90
2022-07-31T11:00:45.499Z,35.30
2022-07-31T11:03:15.352Z,35.10
2022-07-31T11:06:02.208Z,35.10
2022-07-31T11:08:42.105Z,35.10
2022-07-31T11:11:11.071Z,35.30
2022-07-31T11:13:55.323Z,35.40
2022-07-31T11:16:23.539Z,35.80
2022-07-31T11:19:01.869Z,35.40
2022-07-31T11:21:41.362Z,34.70
2022-07-31T11:24:17.306Z,34.60
2022-07-31T11:26:55.566Z,34.50
2022-07-31T11:30:01.613Z,34.60
2022-07-31T11:32:25.241Z,34.70
2022-07-31T11:34:55.578Z,34.50
2022-07-31T11:37:26.644Z,34.80
2022-07-31T11:40:06.990Z,35.00
2022-07-31T11:42:43.605Z,35.00
2022-07-31T11:45:14.916Z,34.70
2022-07-31T11:48:12.293Z,34.40
2022-07-31T11:50:39.888Z,33.80
2022-07-31T11:53:09.119Z,33.10
2022-07-31T11:55:45.889Z,32.80
2022-07-31T11:58:14.677Z,32.80
2022-07-31T12:00:51.722Z,33.10
2022-07-31T12:03:22.402Z,33.20
2022-07-31T12:05:53.130Z,33.30
2022-07-31T12:08:24.139Z,33.40
2022-07-31T12:10:54.242Z,33.50
2022-07-31T12:13:24.627Z,33.60
2022-07-31T12:16:00.259Z,33.30
2022-07-31T12:18:29.497Z,33.30
2022-07-31T12:20:59.026Z,33.20
2022-07-31T12:23:40.245Z,33.20
2022-07-31T12:26:09.742Z,33.30
2022-07-31T12:28:37.656Z,33.20
2022-07-31T12:31:05.688Z,33.10
2022-07-31T12:33:41.761Z,32.80
2022-07-31T12:36:14.230Z,33.00
2022-07-31T12:38:47.861Z,32.90
2022-07-31T12:41:16.819Z,32.50
2022-07-31T12:43:50.970Z,32.30
2022-07-31T12:46:20.363Z,32.10
2022-07-31T12:48:48.261Z,31.90
2022-07-31T12:51:16.860Z,31.90
2022-07-31T12:53:46.064Z,31.90
2022-07-31T12:56:13.951Z,32.00
2022-07-31T12:58:41.777Z,32.10
2022-07-31T13:01:09.656Z,32.10
2022-07-31T13:03:45.364Z,32.10
2022-07-31T13:06:14.446Z,31.90
2022-07-31T13:08:43.760Z,32.10
2022-07-31T13:11:13.039Z,32.10
2022-07-31T13:13:40.895Z,32.20
2022-07-31T13:16:08.764Z,32.10
2022-07-31T13:18:37.960Z,31.90
2022-07-31T13:21:05.924Z,31.70
2022-07-31T13:23:33.790Z,31.70
2022-07-31T13:26:01.668Z,31.60
2022-07-31T13:28:30.857Z,31.60
2022-07-31T13:30:58.731Z,31.80
2022-07-31T13:33:26.802Z,31.90
2022-07-31T13:35:54.684Z,31.80
2022-07-31T13:38:22.518Z,31.70
2022-07-31T13:41:08.105Z,31.70
2022-07-31T13:43:37.314Z,31.70
2022-07-31T13:46:05.185Z,31.70
2022-07-31T13:48:33.359Z,31.60
2022-07-31T13:51:01.220Z,31.50
2022-07-31T13:53:29.224Z,31.50
2022-07-31T13:55:58.683Z,31.60
2022-07-31T13:58:28.127Z,31.70
2022-07-31T14:01:01.382Z,31.70
2022-07-31T14:03:32.169Z,31.70
2022-07-31T14:06:03.903Z,31.70
2022-07-31T14:08:50.025Z,31.60
2022-07-31T14:11:18.471Z,31.60
2022-07-31T14:13:46.286Z,31.60
2022-07-31T14:16:15.506Z,31.60
2022-07-31T14:18:43.349Z,31.60
2022-07-31T14:21:11.272Z,31.60
2022-07-31T14:23:44.607Z,31.60
2022-07-31T14:26:12.462Z,31.50
2022-07-31T14:28:40.311Z,31.60
2022-07-31T14:31:08.264Z,31.60
2022-07-31T14:33:37.465Z,31.50
2022-07-31T14:36:06.457Z,31.40
2022-07-31T14:38:34.315Z,31.30
2022-07-31T14:41:03.700Z,31.20
2022-07-31T14:43:31.580Z,31.20
2022-07-31T14:45:59.504Z,31.30
2022-07-31T14:48:28.097Z,31.40
2022-07-31T14:50:57.362Z,31.40
2022-07-31T14:53:25.224Z,31.40
2022-07-31T14:55:53.076Z,31.40
2022-07-31T14:58:21.346Z,31.30
2022-07-31T15:00:49.220Z,31.20
2022-07-31T15:03:17.096Z,31.20
2022-07-31T15:06:41.397Z,31.20
2022-07-31T15:08:36.190Z,31.30
2022-07-31T15:11:04.175Z,31.40
2022-07-31T15:13:34.943Z,31.30
2022-07-31T15:16:05.471Z,31.30
2022-07-31T15:18:33.301Z,31.30
2022-07-31T15:21:01.232Z,31.20
2022-07-31T15:23:35.882Z,31.10
2022-07-31T15:26:05.589Z,31.00
2022-07-31T15:28:34.466Z,31.00
2022-07-31T15:31:02.403Z,31.20
2022-07-31T15:33:30.322Z,31.10
2022-07-31T15:35:58.173Z,31.00
2022-07-31T15:38:26.092Z,31.00
2022-07-31T15:40:53.929Z,31.00
2022-07-31T15:43:23.170Z,31.00
2022-07-31T15:45:51.221Z,31.00
2022-07-31T15:48:19.039Z,30.90
2022-07-31T15:50:47.004Z,30.80
2022-07-31T15:53:14.848Z,30.70
2022-07-31T15:55:42.665Z,30.60
2022-07-31T15:58:10.635Z,30.60
2022-07-31T16:00:39.859Z,30.50
2022-07-31T16:03:07.749Z,30.50
2022-07-31T16:05:39.030Z,30.40
2022-07-31T16:08:31.104Z,30.30
2022-07-31T16:10:56.389Z,30.40
2022-07-31T16:13:24.613Z,30.20
2022-07-31T16:15:54.679Z,30.10
2022-07-31T16:18:22.724Z,30.10
2022-07-31T16:20:50.617Z,30.10
2022-07-31T16:23:18.502Z,30.10
2022-07-31T16:25:46.402Z,30.10
2022-07-31T16:28:15.000Z,30.00
2022-07-31T16:30:43.751Z,30.10
2022-07-31T16:33:13.346Z,30.30
2022-07-31T16:35:41.273Z,30.40
2022-07-31T16:38:09.162Z,30.40
2022-07-31T16:40:37.019Z,30.30
2022-07-31T16:43:47.964Z,30.30
2022-07-31T16:45:55.022Z,30.30
2022-07-31T16:48:24.241Z,30.30
2022-07-31T16:50:54.055Z,30.10
2022-07-31T16:54:11.278Z,30.00
2022-07-31T16:56:10.774Z,30.00
2022-07-31T16:58:38.637Z,29.90
2022-07-31T17:01:57.154Z,29.80
2022-07-31T17:04:00.894Z,29.80
2022-07-31T17:06:34.349Z,29.80
2022-07-31T17:09:15.988Z,29.90
2022-07-31T17:11:45.758Z,30.00
2022-07-31T17:14:13.597Z,30.10
2022-07-31T17:16:46.803Z,30.10
2022-07-31T17:19:41.051Z,30.10
2022-07-31T17:22:06.610Z,30.10
2022-07-31T17:24:36.968Z,30.10
2022-07-31T17:27:05.581Z,30.10
2022-07-31T17:29:33.844Z,30.10
2022-07-31T17:32:01.765Z,30.10
2022-07-31T17:34:31.700Z,30.10
2022-07-31T17:36:59.587Z,30.00
2022-07-31T17:39:30.785Z,30.00
2022-07-31T17:41:59.135Z,30.00
2022-07-31T17:44:27.361Z,30.00
2022-07-31T17:46:57.951Z,30.00
2022-07-31T17:49:27.335Z,29.90
2022-07-31T17:52:00.032Z,29.90
2022-07-31T17:54:28.586Z,29.90
2022-07-31T17:56:56.612Z,30.00
2022-07-31T17:59:25.922Z,29.90
2022-07-31T18:01:59.564Z,29.90
2022-07-31T18:04:27.983Z,29.80
2022-07-31T18:06:57.592Z,29.80
2022-07-31T18:09:25.962Z,29.70
2022-07-31T18:11:55.016Z,29.70
2022-07-31T18:14:24.469Z,29.60
2022-07-31T18:16:53.363Z,29.50
2022-07-31T18:19:22.071Z,29.40
2022-07-31T18:21:50.252Z,29.40
2022-07-31T18:24:19.696Z,29.40
2022-07-31T18:26:47.558Z,29.30
2022-07-31T18:29:16.876Z,29.20
2022-07-31T18:31:45.333Z,29.10
2022-07-31T18:34:13.461Z,29.10
2022-07-31T18:36:41.494Z,29.10
2022-07-31T18:39:09.513Z,29.00
2022-07-31T18:41:38.781Z,29.00
2022-07-31T18:44:07.137Z,29.00
2022-07-31T18:46:35.002Z,28.90
2022-07-31T18:49:03.001Z,28.80
2022-07-31T18:51:31.204Z,28.80
2022-07-31T18:53:59.133Z,28.70
2022-07-31T18:56:27.174Z,28.60
2022-07-31T18:58:56.617Z,28.50
2022-07-31T19:01:24.886Z,28.40
2022-07-31T19:03:53.765Z,28.30
2022-07-31T19:06:23.211Z,28.20
2022-07-31T19:08:51.995Z,28.10
2022-07-31T19:11:20.225Z,28.00
2022-07-31T19:13:48.177Z,27.90
2022-07-31T19:16:17.877Z,27.90
2022-07-31T19:18:50.221Z,27.70
2022-07-31T19:21:42.595Z,27.60
2022-07-31T19:24:07.988Z,27.50
2022-07-31T19:26:36.013Z,27.40
2022-07-31T19:29:03.946Z,27.30
2022-07-31T19:31:33.335Z,27.20
2022-07-31T19:34:01.247Z,27.10
2022-07-31T19:36:29.250Z,27.00
2022-07-31T19:38:57.102Z,26.90
2022-07-31T19:41:24.916Z,26.80
2022-07-31T19:43:52.769Z,26.80
2022-07-31T19:46:20.607Z,26.70
2022-07-31T19:48:49.839Z,26.60
2022-07-31T19:51:17.764Z,26.60
2022-07-31T19:53:45.984Z,26.50
2022-07-31T19:56:20.500Z,26.40
2022-07-31T19:58:50.110Z,26.30
2022-07-31T20:01:19.968Z,26.20
2022-07-31T20:03:49.622Z,26.10
2022-07-31T20:06:17.616Z,26.00
2022-07-31T20:08:45.476Z,25.90
2022-07-31T20:11:13.404Z,25.80
2022-07-31T20:13:43.042Z,25.70
2022-07-31T20:16:11.126Z,25.70
2022-07-31T20:18:39.086Z,25.60
2022-07-31T20:21:10.780Z,25.50
2022-07-31T20:23:41.380Z,25.30
2022-07-31T20:26:11.211Z,25.30
2022-07-31T20:28:40.232Z,25.20
2022-07-31T20:31:08.266Z,25.20
2022-07-31T20:33:48.894Z,25.20
2022-07-31T20:36:27.332Z,25.30
2022-07-31T20:38:55.313Z,25.70
2022-07-31T20:41:23.147Z,25.70
2022-07-31T20:43:51.263Z,25.60
2022-07-31T20:46:19.255Z,25.60
2022-07-31T20:48:47.218Z,25.40
2022-07-31T20:51:20.288Z,25.30
2022-07-31T20:53:51.867Z,25.30
2022-07-31T20:56:19.972Z,25.20
2022-07-31T20:58:51.752Z,25.10
2022-07-31T21:01:20.875Z,25.10
2022-07-31T21:03:49.352Z,25.00
2022-07-31T21:06:17.352Z,24.80
2022-07-31T21:08:45.157Z,24.80
2022-07-31T21:11:14.399Z,24.90
2022-07-31T21:13:43.133Z,24.80
2022-07-31T21:16:10.987Z,24.70
2022-07-31T21:18:43.063Z,24.50
2022-07-31T21:21:11.269Z,24.40
2022-07-31T21:23:39.091Z,24.50
2022-07-31T21:26:07.699Z,24.40
2022-07-31T21:28:39.326Z,24.40
2022-07-31T21:31:07.446Z,24.40
2022-07-31T21:33:35.915Z,24.30
2022-07-31T21:36:05.862Z,24.30
2022-07-31T21:38:35.801Z,24.30
2022-07-31T21:41:04.154Z,24.10
2022-07-31T21:43:38.347Z,23.90
2022-07-31T21:46:23.539Z,23.90
2022-07-31T21:48:52.320Z,23.80
2022-07-31T21:51:20.536Z,23.80
2022-07-31T21:53:48.399Z,23.80
2022-07-31T21:56:17.089Z,23.80
2022-07-31T21:58:45.201Z,23.70
2022-07-31T22:01:15.014Z,23.80
2022-07-31T22:03:44.395Z,23.90
2022-07-31T22:06:29.846Z,23.80
2022-07-31T22:08:57.727Z,23.70
2022-07-31T22:11:25.557Z,23.70
2022-07-31T22:13:53.381Z,23.60
2022-07-31T22:16:21.257Z,23.40
2022-07-31T22:18:53.239Z,23.20
2022-07-31T22:21:21.277Z,23.20
2022-07-31T22:23:49.510Z,23.10
2022-07-31T22:26:17.571Z,23.10
2022-07-31T22:28:45.730Z,23.10
2022-07-31T22:31:14.008Z,23.10
2022-07-31T22:33:42.096Z,23.00
2022-07-31T22:36:11.656Z,22.90
2022-07-31T22:38:40.431Z,22.80
2022-07-31T22:41:09.048Z,22.70
2022-07-31T22:44:11.252Z,22.70
2022-07-31T22:46:25.115Z,22.80
2022-07-31T22:48:55.380Z,22.80
2022-07-31T22:51:24.804Z,22.80
2022-07-31T22:53:52.650Z,22.70
2022-07-31T22:56:20.683Z,22.50
2022-07-31T22:58:48.508Z,22.50
2022-07-31T23:01:16.341Z,22.50
2022-07-31T23:03:44.210Z,22.40
2022-07-31T23:06:31.290Z,22.30
2022-07-31T23:09:01.802Z,22.30
2022-07-31T23:11:30.017Z,22.30
2022-07-31T23:13:58.027Z,22.30
2022-07-31T23:16:26.295Z,22.30
2022-07-31T23:18:54.193Z,22.20
2022-07-31T23:21:22.148Z,22.00
2022-07-31T23:23:50.281Z,22.00
2022-07-31T23:26:21.083Z,22.00
2022-07-31T23:28:49.398Z,22.20
2022-07-31T23:31:17.524Z,22.30
2022-07-31T23:33:46.145Z,22.30
2022-07-31T23:36:14.609Z,22.40
2022-07-31T23:38:42.666Z,22.30
2022-07-31T23:41:11.343Z,22.10
2022-07-31T23:43:39.804Z,22.00
2022-07-31T23:46:07.928Z,22.00
2022-07-31T23:48:36.013Z,22.00
2022-07-31T23:51:03.945Z,21.90
2022-07-31T23:53:31.844Z,21.70
2022-07-31T23:55:59.683Z,21.70
2022-07-31T23:58:27.527Z,21.60
